Aktuell METAR/TAF ESNU/UME

292050Z 06005KT 2200 SN OVC004 M01/M01 Q1000 RWY 14 ICE 11-25 PCT FCT 0.38=

AMD 292052Z 2921/3006 04006KT 5000 -SN BR BKN005 TEMPO 2921/3006 1400 SN BKN004=
Källa: Luftfartsverket (aro.lfv.se)